Pitt Meadows, British Columbia

14:55 PDT le 07 juillet 2015 (GMT -0700)
Pitt Meadows Chez Douglas | | Change Station
CLOSE
Current Station
Stations météorologiques personnelles
Location: Pitt Meadows, BRITISH COLUMBIA
Altitude: 66 ft
Stations météo à proximité

Alt. 66 ft 49.22 °N, 122.69 °W | Updated 13 minutes ago

Mostly Cloudy
Nuageux
80.8 ° F
Paraît 82 ° F
N
6.3
Vent Variable Vent de OSO

Aujourd'hui
Haut(e) -- | Bas -- ° F
--% Risque de précip.
Hier
Haut(e) -- | Bas -- ° F
Precip. -- pouce
5:14 AM 9:16 PM
Lune gibbeuse décroissante, 61% visible
Pression 29.98 pouce
Visibilité 20.0 Miles terrestres
Nuages Nuageux 10000 ft
indice de chaleur 82 ° F
Point de rosée 60 ° F
Humidité 50%
Précipitations 0.00 pouce
Profondeur de la couche neigeuse Non disponible.
UV 5 sur 12
Pollen Non disponible.
Qualité de l'air Non disponible.
Flu Activity Non disponible.
METAR CYXX 072100Z 21010KT 20SM BKN100 24/14 A2997 RMK FU6 SLP150 DENSITY ALT 1100FT

More Conditions Fewer Conditions

Pression 29.98 pouce
Visibilité 20.0 Miles terrestres
Nuages Nuageux 10000 ft
indice de chaleur 82 ° F
Point de rosée 60 ° F
Humidité 50%
Précipitations 0.00 pouce
Profondeur de la couche neigeuse Non disponible.
UV 5 sur 12
Pollen Non disponible.
Qualité de l'air Non disponible.
Flu Activity Non disponible.
METAR CYXX 072100Z 21010KT 20SM BKN100 24/14 A2997 RMK FU6 SLP150 DENSITY ALT 1100FT

More Conditions Fewer Conditions

10-Day Weather Forecast

×

Almanac

Astronomie

Jul. 07, 2015 Lever Coucher
Temps réel
Crépuscule civil
Crépuscule nautique
Crépuscule astronomique
Lune
Durée de lumière visible
Longueur du jour
Tomorrow will be .
, % of the Moon is Illuminated

Extrêmes aujourd'hui

Country Highs Country Lows

Community

WunderPhotos

Upload Photos

1,835,928 Photos téléchargées !

WunderBlogs® & News

Nearby

Qualité de l'air

  Qualité de l'air Indice de la qualité de l'air Polluant
Not available.

Épaisseur de neige

Station Depth Altitude

Activité sismique

Ville Distance Mag. Time & Date
Minimum magnitude displayed is 2.5.

Températures des eaux côtières

Lieu Température

Stations

Stations météo à proximité

Emplacement de la station Température Refroidissement éolien Point de rosée Humidité Vent Precip. Alt. Mise à jour Type